sensor_id;sensor_type;location;lat;lon;timestamp;pressure;altitude;pressure_sealevel;temperature;humidity
47556;BME280;33291;46.222;26.460;2024-02-14T00:01:53;96154.00;;;4.98;100.00
47556;BME280;33291;46.222;26.460;2024-02-14T00:04:18;96148.56;;;4.90;100.00
47556;BME280;33291;46.222;26.460;2024-02-14T00:06:44;96155.59;;;4.88;100.00
47556;BME280;33291;46.222;26.460;2024-02-14T00:09:10;96164.03;;;4.90;100.00
47556;BME280;33291;46.222;26.460;2024-02-14T00:11:37;96164.84;;;4.90;100.00
47556;BME280;33291;46.222;26.460;2024-02-14T00:14:02;96171.78;;;4.90;100.00
47556;BME280;33291;46.222;26.460;2024-02-14T00:16:29;96169.22;;;4.90;100.00
47556;BME280;33291;46.222;26.460;2024-02-14T00:18:56;96167.56;;;4.89;100.00
47556;BME280;33291;46.222;26.460;2024-02-14T00:21:22;96174.59;;;4.87;100.00
47556;BME280;33291;46.222;26.460;2024-02-14T00:23:50;96177.88;;;4.89;100.00
47556;BME280;33291;46.222;26.460;2024-02-14T00:26:15;96171.31;;;4.85;100.00
47556;BME280;33291;46.222;26.460;2024-02-14T00:28:41;96179.53;;;4.90;100.00
47556;BME280;33291;46.222;26.460;2024-02-14T00:31:07;96172.72;;;4.89;100.00
47556;BME280;33291;46.222;26.460;2024-02-14T00:33:32;96177.88;;;4.89;100.00
47556;BME280;33291;46.222;26.460;2024-02-14T00:35:58;96178.22;;;4.84;100.00
47556;BME280;33291;46.222;26.460;2024-02-14T00:38:23;96184.91;;;4.87;100.00
47556;BME280;33291;46.222;26.460;2024-02-14T00:40:49;96186.91;;;4.83;100.00
47556;BME280;33291;46.222;26.460;2024-02-14T00:43:15;96187.03;;;4.82;100.00
47556;BME280;33291;46.222;26.460;2024-02-14T00:45:40;96189.50;;;4.83;100.00
47556;BME280;33291;46.222;26.460;2024-02-14T00:48:06;96188.53;;;4.84;100.00
47556;BME280;33291;46.222;26.460;2024-02-14T00:50:32;96189.25;;;4.86;100.00
47556;BME280;33291;46.222;26.460;2024-02-14T00:52:59;96190.88;;;4.87;100.00
47556;BME280;33291;46.222;26.460;2024-02-14T00:55:25;96188.66;;;4.83;100.00
47556;BME280;33291;46.222;26.460;2024-02-14T00:57:51;96193.59;;;4.86;100.00
47556;BME280;33291;46.222;26.460;2024-02-14T01:00:16;96200.72;;;4.82;100.00
47556;BME280;33291;46.222;26.460;2024-02-14T01:02:43;96202.63;;;4.80;100.00
47556;BME280;33291;46.222;26.460;2024-02-14T01:05:08;96193.66;;;4.73;100.00
47556;BME280;33291;46.222;26.460;2024-02-14T01:07:35;96196.13;;;4.74;100.00
47556;BME280;33291;46.222;26.460;2024-02-14T01:10:01;96190.16;;;4.74;100.00
47556;BME280;33291;46.222;26.460;2024-02-14T01:12:26;96196.13;;;4.74;100.00
47556;BME280;33291;46.222;26.460;2024-02-14T01:14:52;96197.78;;;4.75;100.00
47556;BME280;33291;46.222;26.460;2024-02-14T01:17:17;96200.25;;;4.77;100.00
47556;BME280;33291;46.222;26.460;2024-02-14T01:19:44;96197.69;;;4.77;100.00
47556;BME280;33291;46.222;26.460;2024-02-14T01:22:10;96201.19;;;4.76;100.00
47556;BME280;33291;46.222;26.460;2024-02-14T01:24:35;96198.72;;;4.74;100.00
47556;BME280;33291;46.222;26.460;2024-02-14T01:27:01;96201.19;;;4.76;100.00
47556;BME280;33291;46.222;26.460;2024-02-14T01:29:28;96202.22;;;4.73;100.00
47556;BME280;33291;46.222;26.460;2024-02-14T01:31:53;96206.44;;;4.74;100.00
47556;BME280;33291;46.222;26.460;2024-02-14T01:34:20;96205.63;;;4.74;100.00
47556;BME280;33291;46.222;26.460;2024-02-14T01:36:47;96196.56;;;4.68;100.00
47556;BME280;33291;46.222;26.460;2024-02-14T01:39:13;96207.47;;;4.72;100.00
47556;BME280;33291;46.222;26.460;2024-02-14T01:41:38;96180.53;;;4.52;100.00
47556;BME280;33291;46.222;26.460;2024-02-14T01:44:04;96207.81;;;4.67;100.00
47556;BME280;33291;46.222;26.460;2024-02-14T01:46:30;96205.22;;;4.67;100.00
47556;BME280;33291;46.222;26.460;2024-02-14T01:48:56;96215.56;;;4.67;100.00
47556;BME280;33291;46.222;26.460;2024-02-14T01:51:24;96214.75;;;4.67;100.00
47556;BME280;33291;46.222;26.460;2024-02-14T01:53:51;96216.69;;;4.63;100.00
47556;BME280;33291;46.222;26.460;2024-02-14T01:56:17;96214.34;;;4.60;100.00
47556;BME280;33291;46.222;26.460;2024-02-14T01:58:43;96221.16;;;4.61;100.00
47556;BME280;33291;46.222;26.460;2024-02-14T02:01:11;96221.97;;;4.61;100.00
47556;BME280;33291;46.222;26.460;2024-02-14T02:03:37;96214.34;;;4.60;100.00
47556;BME280;33291;46.222;26.460;2024-02-14T02:06:06;96219.50;;;4.60;100.00
47556;BME280;33291;46.222;26.460;2024-02-14T02:08:32;96224.44;;;4.63;100.00
47556;BME280;33291;46.222;26.460;2024-02-14T02:10:58;96214.56;;;4.57;100.00
47556;BME280;33291;46.222;26.460;2024-02-14T02:13:24;96220.44;;;4.59;100.00
47556;BME280;33291;46.222;26.460;2024-02-14T02:15:52;96218.19;;;4.54;100.00
47556;BME280;33291;46.222;26.460;2024-02-14T02:18:18;96201.94;;;4.41;100.00
47556;BME280;33291;46.222;26.460;2024-02-14T02:20:45;96224.06;;;4.56;100.00
47556;BME280;33291;46.222;26.460;2024-02-14T02:23:11;96221.81;;;4.52;100.00
47556;BME280;33291;46.222;26.460;2024-02-14T02:25:41;96234.47;;;4.55;100.00
47556;BME280;33291;46.222;26.460;2024-02-14T02:28:07;96234.59;;;4.53;100.00
47556;BME280;33291;46.222;26.460;2024-02-14T02:30:36;96234.59;;;4.53;100.00
47556;BME280;33291;46.222;26.460;2024-02-14T02:33:03;96234.59;;;4.53;100.00
47556;BME280;33291;46.222;26.460;2024-02-14T02:35:29;96232.94;;;4.52;100.00
47556;BME280;33291;46.222;26.460;2024-02-14T02:37:54;96239.84;;;4.52;100.00
47556;BME280;33291;46.222;26.460;2024-02-14T02:40:20;96238.94;;;4.53;100.00
47556;BME280;33291;46.222;26.460;2024-02-14T02:42:49;96250.06;;;4.53;100.00
47556;BME280;33291;46.222;26.460;2024-02-14T02:45:16;96244.91;;;4.53;100.00
47556;BME280;33291;46.222;26.460;2024-02-14T02:47:42;96245.84;;;4.52;100.00
47556;BME280;33291;46.222;26.460;2024-02-14T02:50:08;96252.97;;;4.49;100.00
47556;BME280;33291;46.222;26.460;2024-02-14T02:52:36;96245.34;;;4.47;100.00
47556;BME280;33291;46.222;26.460;2024-02-14T02:55:02;96262.59;;;4.47;100.00
47556;BME280;33291;46.222;26.460;2024-02-14T02:57:28;96251.53;;;4.44;100.00
47556;BME280;33291;46.222;26.460;2024-02-14T02:59:54;96272.91;;;4.47;100.00
47556;BME280;33291;46.222;26.460;2024-02-14T03:02:20;96262.69;;;4.45;100.00
47556;BME280;33291;46.222;26.460;2024-02-14T03:04:46;96271.34;;;4.44;100.00
47556;BME280;33291;46.222;26.460;2024-02-14T03:07:12;96257.31;;;4.35;100.00
47556;BME280;33291;46.222;26.460;2024-02-14T03:09:38;96275.69;;;4.43;100.00
47556;BME280;33291;46.222;26.460;2024-02-14T03:12:04;96272.38;;;4.41;100.00
47556;BME280;33291;46.222;26.460;2024-02-14T03:14:31;96280.13;;;4.41;100.00
47556;BME280;33291;46.222;26.460;2024-02-14T03:17:01;96291.88;;;4.45;100.00
47556;BME280;33291;46.222;26.460;2024-02-14T03:19:27;96297.13;;;4.44;100.00
47556;BME280;33291;46.222;26.460;2024-02-14T03:21:54;96299.81;;;4.42;100.00
47556;BME280;33291;46.222;26.460;2024-02-14T03:24:20;96303.31;;;4.41;100.00
47556;BME280;33291;46.222;26.460;2024-02-14T03:26:45;96301.91;;;4.37;100.00
47556;BME280;33291;46.222;26.460;2024-02-14T03:29:12;96299.63;;;4.33;100.00
47556;BME280;33291;46.222;26.460;2024-02-14T03:31:37;96302.19;;;4.33;100.00
47556;BME280;33291;46.222;26.460;2024-02-14T03:34:03;96300.78;;;4.29;100.00
47556;BME280;33291;46.222;26.460;2024-02-14T03:36:29;96315.94;;;4.33;100.00
47556;BME280;33291;46.222;26.460;2024-02-14T03:38:59;96307.34;;;4.33;100.00
47556;BME280;33291;46.222;26.460;2024-02-14T03:41:29;96314.06;;;4.35;100.00
47556;BME280;33291;46.222;26.460;2024-02-14T03:43:54;96319.22;;;4.35;100.00
47556;BME280;33291;46.222;26.460;2024-02-14T03:46:23;96319.22;;;4.35;100.00
47556;BME280;33291;46.222;26.460;2024-02-14T03:48:49;96332.13;;;4.35;100.00
47556;BME280;33291;46.222;26.460;2024-02-14T03:51:15;96316.13;;;4.30;100.00
47556;BME280;33291;46.222;26.460;2024-02-14T03:53:41;96325.22;;;4.36;100.00
47556;BME280;33291;46.222;26.460;2024-02-14T03:56:07;96299.94;;;4.15;100.00
47556;BME280;33291;46.222;26.460;2024-02-14T03:58:33;96321.50;;;4.27;100.00
47556;BME280;33291;46.222;26.460;2024-02-14T04:01:05;96333.25;;;4.31;100.00
47556;BME280;33291;46.222;26.460;2024-02-14T04:03:30;96331.50;;;4.32;100.00
47556;BME280;33291;46.222;26.460;2024-02-14T04:05:56;96332.53;;;4.29;100.00
47556;BME280;33291;46.222;26.460;2024-02-14T04:08:22;96328.94;;;4.32;100.00
47556;BME280;33291;46.222;26.460;2024-02-14T04:10:48;96337.47;;;4.32;100.00
47556;BME280;33291;46.222;26.460;2024-02-14T04:13:19;96336.88;;;4.29;100.00
47556;BME280;33291;46.222;26.460;2024-02-14T04:15:45;96331.06;;;4.25;100.00
47556;BME280;33291;46.222;26.460;2024-02-14T04:18:12;96348.00;;;4.29;100.00
47556;BME280;33291;46.222;26.460;2024-02-14T04:20:37;96345.44;;;4.29;100.00
47556;BME280;33291;46.222;26.460;2024-02-14T04:23:03;96335.91;;;4.30;100.00
47556;BME280;33291;46.222;26.460;2024-02-14T04:25:32;96342.94;;;4.27;100.00
47556;BME280;33291;46.222;26.460;2024-02-14T04:27:57;96347.91;;;4.31;100.00
47556;BME280;33291;46.222;26.460;2024-02-14T04:30:25;96321.50;;;4.14;100.00
47556;BME280;33291;46.222;26.460;2024-02-14T04:32:50;96354.72;;;4.32;100.00
47556;BME280;33291;46.222;26.460;2024-02-14T04:35:19;96356.34;;;4.33;100.00
47556;BME280;33291;46.222;26.460;2024-02-14T04:37:45;96346.88;;;4.33;100.00
47556;BME280;33291;46.222;26.460;2024-02-14T04:40:12;96352.94;;;4.32;100.00
47556;BME280;33291;46.222;26.460;2024-02-14T04:42:38;96363.47;;;4.29;100.00
47556;BME280;33291;46.222;26.460;2024-02-14T04:45:04;96357.59;;;4.27;100.00
47556;BME280;33291;46.222;26.460;2024-02-14T04:47:30;96353.56;;;4.23;100.00
47556;BME280;33291;46.222;26.460;2024-02-14T04:49:55;96364.59;;;4.25;100.00
47556;BME280;33291;46.222;26.460;2024-02-14T04:52:21;96359.22;;;4.28;100.00
47556;BME280;33291;46.222;26.460;2024-02-14T04:54:47;96370.41;;;4.29;100.00
47556;BME280;33291;46.222;26.460;2024-02-14T04:57:12;96371.09;;;4.31;100.00
47556;BME280;33291;46.222;26.460;2024-02-14T04:59:38;96375.56;;;4.29;100.00
47556;BME280;33291;46.222;26.460;2024-02-14T05:02:04;96372.22;;;4.26;100.00
47556;BME280;33291;46.222;26.460;2024-02-14T05:04:29;96385.66;;;4.32;100.00
47556;BME280;33291;46.222;26.460;2024-02-14T05:06:56;96389.97;;;4.31;100.00
47556;BME280;33291;46.222;26.460;2024-02-14T05:09:22;96394.53;;;4.27;100.00
47556;BME280;33291;46.222;26.460;2024-02-14T05:11:48;96399.69;;;4.27;100.00
47556;BME280;33291;46.222;26.460;2024-02-14T05:14:14;96399.06;;;4.24;100.00
47556;BME280;33291;46.222;26.460;2024-02-14T05:16:39;96397.09;;;4.27;100.00
47556;BME280;33291;46.222;26.460;2024-02-14T05:19:05;96410.81;;;4.28;100.00
47556;BME280;33291;46.222;26.460;2024-02-14T05:21:31;96411.75;;;4.27;100.00
47556;BME280;33291;46.222;26.460;2024-02-14T05:23:57;96413.38;;;4.28;100.00
47556;BME280;33291;46.222;26.460;2024-02-14T05:26:22;96417.72;;;4.27;100.00
47556;BME280;33291;46.222;26.460;2024-02-14T05:28:48;96422.69;;;4.31;100.00
47556;BME280;33291;46.222;26.460;2024-02-14T05:31:14;96418.66;;;4.26;100.00
47556;BME280;33291;46.222;26.460;2024-02-14T05:33:40;96431.34;;;4.30;100.00
47556;BME280;33291;46.222;26.460;2024-02-14T05:36:06;96436.38;;;4.31;100.00
47556;BME280;33291;46.222;26.460;2024-02-14T05:38:32;96438.03;;;4.32;100.00
47556;BME280;33291;46.222;26.460;2024-02-14T05:40:59;96446.69;;;4.31;100.00
47556;BME280;33291;46.222;26.460;2024-02-14T05:43:25;96440.81;;;4.29;100.00
47556;BME280;33291;46.222;26.460;2024-02-14T05:45:51;96448.78;;;4.26;100.00
47556;BME280;33291;46.222;26.460;2024-02-14T05:48:16;96455.78;;;4.24;100.00
47556;BME280;33291;46.222;26.460;2024-02-14T05:50:42;96448.06;;;4.24;100.00
47556;BME280;33291;46.222;26.460;2024-02-14T05:53:08;96454.22;;;4.21;100.00
47556;BME280;33291;46.222;26.460;2024-02-14T05:55:33;96459.91;;;4.26;100.00
47556;BME280;33291;46.222;26.460;2024-02-14T05:57:59;96453.41;;;4.21;100.00
47556;BME280;33291;46.222;26.460;2024-02-14T06:00:25;96466.72;;;4.27;100.00
47556;BME280;33291;46.222;26.460;2024-02-14T06:02:51;96468.38;;;4.29;100.00
47556;BME280;33291;46.222;26.460;2024-02-14T06:05:16;96474.56;;;4.26;100.00
47556;BME280;33291;46.222;26.460;2024-02-14T06:07:43;96478.78;;;4.27;100.00
47556;BME280;33291;46.222;26.460;2024-02-14T06:10:10;96476.00;;;4.30;100.00
47556;BME280;33291;46.222;26.460;2024-02-14T06:12:36;96482.00;;;4.31;100.00
47556;BME280;33291;46.222;26.460;2024-02-14T06:15:02;96472.69;;;4.28;100.00
47556;BME280;33291;46.222;26.460;2024-02-14T06:17:30;96474.34;;;4.29;100.00
47556;BME280;33291;46.222;26.460;2024-02-14T06:19:56;96486.03;;;4.35;100.00
47556;BME280;33291;46.222;26.460;2024-02-14T06:22:22;96474.78;;;4.36;100.00
47556;BME280;33291;46.222;26.460;2024-02-14T06:24:48;96472.50;;;4.31;100.00
47556;BME280;33291;46.222;26.460;2024-02-14T06:27:14;96494.16;;;4.41;100.00
47556;BME280;33291;46.222;26.460;2024-02-14T06:29:43;96477.47;;;4.34;100.00
47556;BME280;33291;46.222;26.460;2024-02-14T09:31:35;96632.34;;;4.86;99.57
47556;BME280;33291;46.222;26.460;2024-02-14T09:34:01;96643.94;;;4.93;100.00
47556;BME280;33291;46.222;26.460;2024-02-14T09:36:27;96637.09;;;4.92;100.00
47556;BME280;33291;46.222;26.460;2024-02-14T09:38:52;96639.31;;;4.98;100.00
47556;BME280;33291;46.222;26.460;2024-02-14T09:41:26;96641.69;;;5.01;100.00
47556;BME280;33291;46.222;26.460;2024-02-14T09:43:55;96644.47;;;4.98;100.00
47556;BME280;33291;46.222;26.460;2024-02-14T09:46:24;96641.03;;;4.97;100.00
47556;BME280;33291;46.222;26.460;2024-02-14T09:48:52;96639.78;;;4.90;100.00
47556;BME280;33291;46.222;26.460;2024-02-14T09:51:17;96638.97;;;4.90;100.00
47556;BME280;33291;46.222;26.460;2024-02-14T09:53:44;96643.63;;;4.97;100.00
47556;BME280;33291;46.222;26.460;2024-02-14T09:56:11;96641.03;;;4.97;100.00
47556;BME280;33291;46.222;26.460;2024-02-14T09:58:37;96644.28;;;5.01;100.00
47556;BME280;33291;46.222;26.460;2024-02-14T10:01:03;96633.50;;;4.94;100.00
47556;BME280;33291;46.222;26.460;2024-02-14T10:03:30;96643.13;;;5.05;100.00
47556;BME280;33291;46.222;26.460;2024-02-14T10:05:55;96644.69;;;5.08;100.00
47556;BME280;33291;46.222;26.460;2024-02-14T10:08:22;96637.53;;;5.11;100.00
47556;BME280;33291;46.222;26.460;2024-02-14T10:10:49;96633.34;;;5.10;100.00
47556;BME280;33291;46.222;26.460;2024-02-14T10:13:15;96639.09;;;5.14;100.00
47556;BME280;33291;46.222;26.460;2024-02-14T10:15:41;96640.13;;;5.11;100.00
47556;BME280;33291;46.222;26.460;2024-02-14T10:18:07;96642.50;;;5.14;99.54
47556;BME280;33291;46.222;26.460;2024-02-14T10:20:35;96642.50;;;5.14;97.75
47556;BME280;33291;46.222;26.460;2024-02-14T10:23:07;96634.25;;;5.09;97.49
47556;BME280;33291;46.222;26.460;2024-02-14T10:25:36;96639.72;;;5.18;96.74
47556;BME280;33291;46.222;26.460;2024-02-14T10:28:06;96635.31;;;5.20;96.14
47556;BME280;33291;46.222;26.460;2024-02-14T10:30:38;96630.34;;;5.16;94.70
47556;BME280;33291;46.222;26.460;2024-02-14T10:33:05;96636.72;;;5.24;92.62
47556;BME280;33291;46.222;26.460;2024-02-14T10:35:36;96641.72;;;5.27;92.39
47556;BME280;33291;46.222;26.460;2024-02-14T10:38:04;96628.97;;;5.24;91.85
47556;BME280;33291;46.222;26.460;2024-02-14T10:40:32;96644.72;;;5.33;91.35
47556;BME280;33291;46.222;26.460;2024-02-14T10:42:58;96642.13;;;5.33;91.90
47556;BME280;33291;46.222;26.460;2024-02-14T10:45:24;96629.09;;;5.35;91.86
47556;BME280;33291;46.222;26.460;2024-02-14T10:47:52;96632.41;;;5.37;92.25
47556;BME280;33291;46.222;26.460;2024-02-14T10:50:21;96630.56;;;5.39;92.55
47556;BME280;33291;46.222;26.460;2024-02-14T10:52:48;96637.56;;;5.37;93.10
47556;BME280;33291;46.222;26.460;2024-02-14T10:55:16;96632.41;;;5.37;90.08
47556;BME280;33291;46.222;26.460;2024-02-14T10:57:43;96640.91;;;5.39;89.85
47556;BME280;33291;46.222;26.460;2024-02-14T11:00:12;96622.28;;;5.34;89.86
47556;BME280;33291;46.222;26.460;2024-02-14T11:02:40;96630.25;;;5.44;89.96
47556;BME280;33291;46.222;26.460;2024-02-14T11:05:12;96628.47;;;5.44;89.83
47556;BME280;33291;46.222;26.460;2024-02-14T11:07:44;96631.78;;;5.46;89.46
47556;BME280;33291;46.222;26.460;2024-02-14T11:10:13;96634.25;;;5.48;88.84
47556;BME280;33291;46.222;26.460;2024-02-14T11:12:40;96629.09;;;5.48;88.93
47556;BME280;33291;46.222;26.460;2024-02-14T11:15:16;96624.22;;;5.43;88.94
47556;BME280;33291;46.222;26.460;2024-02-14T11:17:42;96631.47;;;5.51;88.55
47556;BME280;33291;46.222;26.460;2024-02-14T11:23:06;96637.38;;;5.53;87.83
47556;BME280;33291;46.222;26.460;2024-02-14T11:25:36;96625.38;;;5.52;87.20
47556;BME280;33291;46.222;26.460;2024-02-14T11:28:16;96622.91;;;5.50;85.89
47556;BME280;33291;46.222;26.460;2024-02-14T11:30:42;96631.16;;;5.56;84.27
47556;BME280;33291;46.222;26.460;2024-02-14T11:33:21;96626.63;;;5.59;83.56
47556;BME280;33291;46.222;26.460;2024-02-14T11:35:48;96635.94;;;5.62;83.55
47556;BME280;33291;46.222;26.460;2024-02-14T11:38:21;96635.94;;;5.62;83.04
47556;BME280;33291;46.222;26.460;2024-02-14T11:40:49;96623.00;;;5.62;82.67
47556;BME280;33291;46.222;26.460;2024-02-14T11:43:16;96634.06;;;5.64;82.26
47556;BME280;33291;46.222;26.460;2024-02-14T11:45:46;96621.44;;;5.59;81.98
47556;BME280;33291;46.222;26.460;2024-02-14T11:48:15;96639.94;;;5.66;82.05
47556;BME280;33291;46.222;26.460;2024-02-14T11:50:43;96638.31;;;5.65;81.52
47556;BME280;33291;46.222;26.460;2024-02-14T11:53:14;96634.06;;;5.64;81.01
47556;BME280;33291;46.222;26.460;2024-02-14T11:55:43;96636.03;;;5.60;80.87
47556;BME280;33291;46.222;26.460;2024-02-14T11:58:09;96634.47;;;5.58;80.90
47556;BME280;33291;46.222;26.460;2024-02-14T12:00:46;96636.13;;;5.59;81.15
47556;BME280;33291;46.222;26.460;2024-02-14T12:03:18;96637.06;;;5.58;81.35
47556;BME280;33291;46.222;26.460;2024-02-14T12:05:46;96633.22;;;5.50;81.56
47556;BME280;33291;46.222;26.460;2024-02-14T12:08:13;96639.09;;;5.52;82.36
47556;BME280;33291;46.222;26.460;2024-02-14T12:10:42;96630.16;;;5.45;82.52
47556;BME280;33291;46.222;26.460;2024-02-14T12:13:10;96638.19;;;5.54;82.90
47556;BME280;33291;46.222;26.460;2024-02-14T12:15:40;96638.41;;;5.50;83.62
47556;BME280;33291;46.222;26.460;2024-02-14T12:18:08;96639.44;;;5.61;83.60
47556;BME280;33291;46.222;26.460;2024-02-14T12:20:35;96641.91;;;5.62;83.64
47556;BME280;33291;46.222;26.460;2024-02-14T12:23:01;96641.81;;;5.64;83.54
47556;BME280;33291;46.222;26.460;2024-02-14T12:25:27;96647.91;;;5.63;84.66
47556;BME280;33291;46.222;26.460;2024-02-14T12:27:56;96649.56;;;5.64;85.22
47556;BME280;33291;46.222;26.460;2024-02-14T12:30:22;96642.72;;;5.63;85.44
47556;BME280;33291;46.222;26.460;2024-02-14T12:33:00;96640.88;;;5.65;85.66
47556;BME280;33291;46.222;26.460;2024-02-14T12:35:34;96641.91;;;5.62;85.56
47556;BME280;33291;46.222;26.460;2024-02-14T12:38:01;96640.47;;;5.58;85.03
47556;BME280;33291;46.222;26.460;2024-02-14T12:40:26;96643.88;;;5.59;85.43
47556;BME280;33291;46.222;26.460;2024-02-14T12:42:52;96648.97;;;5.60;85.79
47556;BME280;33291;46.222;26.460;2024-02-14T12:45:17;96653.06;;;5.63;85.99
47556;BME280;33291;46.222;26.460;2024-02-14T12:47:44;96663.41;;;5.63;85.82
47556;BME280;33291;46.222;26.460;2024-02-14T12:50:09;96652.25;;;5.62;86.06
47556;BME280;33291;46.222;26.460;2024-02-14T12:52:35;96652.47;;;5.59;86.19
47556;BME280;33291;46.222;26.460;2024-02-14T12:55:01;96665.06;;;5.64;85.30
47556;BME280;33291;46.222;26.460;2024-02-14T12:57:26;96658.97;;;5.65;85.21
47556;BME280;33291;46.222;26.460;2024-02-14T12:59:52;96658.03;;;5.66;85.37
47556;BME280;33291;46.222;26.460;2024-02-14T13:02:17;96666.63;;;5.66;85.66
47556;BME280;33291;46.222;26.460;2024-02-14T13:04:43;96633.53;;;5.46;85.16
47556;BME280;33291;46.222;26.460;2024-02-14T13:07:09;96667.53;;;5.65;85.48
47556;BME280;33291;46.222;26.460;2024-02-14T13:09:34;96658.44;;;5.60;85.02
47556;BME280;33291;46.222;26.460;2024-02-14T13:12:00;96670.22;;;5.64;84.41
47556;BME280;33291;46.222;26.460;2024-02-14T13:14:26;96665.28;;;5.61;83.85
47556;BME280;33291;46.222;26.460;2024-02-14T13:16:52;96670.44;;;5.61;83.71
47556;BME280;33291;46.222;26.460;2024-02-14T13:19:17;96663.00;;;5.56;83.51
47556;BME280;33291;46.222;26.460;2024-02-14T13:21:43;96665.69;;;5.55;83.38
47556;BME280;33291;46.222;26.460;2024-02-14T13:24:11;96676.53;;;5.60;83.28
47556;BME280;33291;46.222;26.460;2024-02-14T13:26:38;96683.56;;;5.58;83.10
47556;BME280;33291;46.222;26.460;2024-02-14T13:29:04;96682.81;;;5.56;83.04
47556;BME280;33291;46.222;26.460;2024-02-14T13:31:29;96684.91;;;5.50;82.67
47556;BME280;33291;46.222;26.460;2024-02-14T13:33:55;96693.16;;;5.56;82.94
47556;BME280;33291;46.222;26.460;2024-02-14T13:36:20;96686.56;;;5.51;82.85
47556;BME280;33291;46.222;26.460;2024-02-14T13:38:49;96690.19;;;5.49;82.95
47556;BME280;33291;46.222;26.460;2024-02-14T13:41:14;96703.72;;;5.52;83.22
47556;BME280;33291;46.222;26.460;2024-02-14T13:43:40;96707.03;;;5.55;82.99
47556;BME280;33291;46.222;26.460;2024-02-14T13:46:07;96703.00;;;5.50;83.28
47556;BME280;33291;46.222;26.460;2024-02-14T13:48:34;96705.56;;;5.50;83.52
47556;BME280;33291;46.222;26.460;2024-02-14T13:51:00;96712.63;;;5.48;83.14
47556;BME280;33291;46.222;26.460;2024-02-14T13:53:27;96712.72;;;5.47;83.71
47556;BME280;33291;46.222;26.460;2024-02-14T13:55:53;96708.38;;;5.47;83.85
47556;BME280;33291;46.222;26.460;2024-02-14T13:58:18;96709.19;;;5.48;84.24
47556;BME280;33291;46.222;26.460;2024-02-14T14:00:44;96714.25;;;5.49;84.36
47556;BME280;33291;46.222;26.460;2024-02-14T14:03:10;96704.13;;;5.46;84.66
47556;BME280;33291;46.222;26.460;2024-02-14T14:05:37;96714.25;;;5.49;84.69
47556;BME280;33291;46.222;26.460;2024-02-14T14:08:02;96715.09;;;5.50;84.16
47556;BME280;33291;46.222;26.460;2024-02-14T14:10:28;96714.25;;;5.49;84.28
47556;BME280;33291;46.222;26.460;2024-02-14T14:12:55;96710.75;;;5.50;84.60
47556;BME280;33291;46.222;26.460;2024-02-14T14:15:20;96717.78;;;5.48;84.43
47556;BME280;33291;46.222;26.460;2024-02-14T14:17:47;96718.81;;;5.46;84.08
47556;BME280;33291;46.222;26.460;2024-02-14T14:20:14;96718.69;;;5.47;84.12
47556;BME280;33291;46.222;26.460;2024-02-14T14:22:39;96716.41;;;5.43;84.27
47556;BME280;33291;46.222;26.460;2024-02-14T14:25:05;96729.03;;;5.47;84.46
47556;BME280;33291;46.222;26.460;2024-02-14T14:27:33;96726.44;;;5.47;84.41
47556;BME280;33291;46.222;26.460;2024-02-14T14:29:59;96724.88;;;5.45;84.49
47556;BME280;33291;46.222;26.460;2024-02-14T14:32:24;96730.69;;;5.48;84.38
47556;BME280;33291;46.222;26.460;2024-02-14T14:34:50;96736.06;;;5.45;84.41
47556;BME280;33291;46.222;26.460;2024-02-14T14:37:16;96736.16;;;5.44;84.25
47556;BME280;33291;46.222;26.460;2024-02-14T14:39:41;96737.00;;;5.44;84.14
47556;BME280;33291;46.222;26.460;2024-02-14T14:42:09;96736.88;;;5.46;83.96
47556;BME280;33291;46.222;26.460;2024-02-14T14:44:34;96740.28;;;5.46;84.06
47556;BME280;33291;46.222;26.460;2024-02-14T14:47:01;96729.13;;;5.46;84.35
47556;BME280;33291;46.222;26.460;2024-02-14T14:49:26;96739.56;;;5.44;84.02
47556;BME280;33291;46.222;26.460;2024-02-14T14:51:52;96741.66;;;5.39;83.07
47556;BME280;33291;46.222;26.460;2024-02-14T17:38:22;96898.09;;;4.30;92.26
47556;BME280;33291;46.222;26.460;2024-02-14T17:40:49;96892.28;;;4.26;93.25
47556;BME280;33291;46.222;26.460;2024-02-14T17:43:14;96893.97;;;4.27;93.92
47556;BME280;33291;46.222;26.460;2024-02-14T17:45:40;96895.78;;;4.25;93.96
47556;BME280;33291;46.222;26.460;2024-02-14T17:48:06;96906.00;;;4.26;94.28
47556;BME280;33291;46.222;26.460;2024-02-14T17:50:32;96910.44;;;4.24;94.66
47556;BME280;33291;46.222;26.460;2024-02-14T17:56:10;96895.22;;;4.20;94.95
47556;BME280;33291;46.222;26.460;2024-02-14T17:58:36;96898.72;;;4.19;94.31
47556;BME280;33291;46.222;26.460;2024-02-14T18:34:37;96929.66;;;4.19;94.87
47556;BME280;33291;46.222;26.460;2024-02-14T18:37:03;96929.38;;;4.23;94.65
47556;BME280;33291;46.222;26.460;2024-02-14T18:39:29;96943.78;;;4.27;94.71
47556;BME280;33291;46.222;26.460;2024-02-14T18:41:54;96942.88;;;4.29;94.79
47556;BME280;33291;46.222;26.460;2024-02-14T18:44:20;96940.19;;;4.30;94.60
47556;BME280;33291;46.222;26.460;2024-02-14T18:46:45;96942.19;;;4.25;94.57
47556;BME280;33291;46.222;26.460;2024-02-14T18:49:12;96943.88;;;4.26;94.44
47556;BME280;33291;46.222;26.460;2024-02-14T18:51:37;96950.09;;;4.22;94.55
47556;BME280;33291;46.222;26.460;2024-02-14T18:54:06;96951.03;;;4.21;94.22
47556;BME280;33291;46.222;26.460;2024-02-14T18:56:34;96957.03;;;4.21;94.34
47556;BME280;33291;46.222;26.460;2024-02-14T18:59:00;96958.78;;;4.21;94.51
47556;BME280;33291;46.222;26.460;2024-02-14T19:01:26;96958.59;;;4.24;94.45
47556;BME280;33291;46.222;26.460;2024-02-14T19:03:53;96958.03;;;4.19;94.00
47556;BME280;33291;46.222;26.460;2024-02-14T19:46:05;96983.41;;;3.80;87.88
47556;BME280;33291;46.222;26.460;2024-02-14T19:48:31;96994.19;;;3.87;88.14
47556;BME280;33291;46.222;26.460;2024-02-14T19:50:58;96984.63;;;3.89;87.64
47556;BME280;33291;46.222;26.460;2024-02-14T19:53:24;96986.53;;;3.85;87.46
47556;BME280;33291;46.222;26.460;2024-02-14T19:55:50;96993.84;;;3.93;87.48